PWSweather.com
Personal Weather Stations
Station Observations
KOHREFORM1
Reform, Ohio, Newark, OH 43055

Reform, OhioNewark, OH 43055

Lat: 40.1502, Lon: -82.2417

Elevation: 1043

Station Type: Davis Vantage Pro 2 Plus

Latest ConditionsUpdated 3:09:10 AM EDT Tuesday, Jun 27, 2017
Currently Today's Max Today's Min Today's Average
Temperature 51.6°F10.9°C 52.8°F11.6°C 51.6°F10.9°C 52.1°F11.2°C
Dew Point 48.8°F9.3°C 49.6°F9.8°C 48.5°F9.2°C 49.1°F9.5°C
Winds Calm Calm 2.0 mph W3.2 kmh W - 0.1 mph 0.2 kmh
Wind Gusts -- 2.0 mph3.2 kmh - -
Humidity 90% 90% 88% 90%
Pressure 30.04 in1017.3 mb 30.05 in1017.6 mb 30.03 in1016.9 mb -
Precipitation - 0.01 in0.3 mm - -
Hour Temp Dew Point Humidity Winds Wind Gusts Pressure Precip Precip Rate Daily Precip Total
03:09 AM 51.6°F10.9°C 48.8°F9.3°C 90% Calm Calm -- 30.04 in1017.3 mb 0.00 in0.0 mm 0.00 in0.0 mm 0.01 in0.3 mm
03:07 AM 51.7°F10.9°C 48.9°F9.4°C 90% Calm Calm -- 30.03 in1016.9 mb 0.00 in0.0 mm 0.00 in0.0 mm 0.01 in0.3 mm
03:05 AM 51.7°F10.9°C 48.9°F9.4°C 90% Calm Calm -- 30.03 in1016.9 mb 0.00 in0.0 mm 0.00 in0.0 mm 0.01 in0.3 mm
03:03 AM 51.8°F11.0°C 49.0°F9.4°C 90% Calm Calm -- 30.04 in1017.3 mb 0.00 in0.0 mm 0.00 in0.0 mm 0.01 in0.3 mm
03:01 AM 51.8°F11.0°C 49.0°F9.4°C 90% Calm Calm -- 30.04 in1017.3 mb 0.00 in0.0 mm 0.00 in0.0 mm 0.01 in0.3 mm
02:59 AM 51.9°F11.1°C 49.1°F9.5°C 90% Calm Calm -- 30.04 in1017.3 mb 0.00 in0.0 mm 0.00 in0.0 mm 0.01 in0.3 mm
02:57 AM 51.9°F11.1°C 49.1°F9.5°C 90% Calm Calm 1.0 mph1.6 kmh 30.03 in1016.9 mb 0.00 in0.0 mm 0.00 in0.0 mm 0.01 in0.3 mm
02:55 AM 52.0°F11.1°C 49.2°F9.6°C 90% Calm Calm -- 30.03 in1016.9 mb 0.00 in0.0 mm 0.00 in0.0 mm 0.01 in0.3 mm
02:53 AM 52.0°F11.1°C 49.2°F9.6°C 90% Calm Calm -- 30.03 in1016.9 mb 0.00 in0.0 mm 0.00 in0.0 mm 0.01 in0.3 mm
02:51 AM 52.1°F11.2°C 49.3°F9.6°C 90% Calm Calm -- 30.03 in1016.9 mb 0.00 in0.0 mm 0.00 in0.0 mm 0.01 in0.3 mm
02:49 AM 52.1°F11.2°C 49.3°F9.6°C 90% Calm Calm -- 30.03 in1016.9 mb 0.00 in0.0 mm 0.00 in0.0 mm 0.01 in0.3 mm
02:47 AM 52.2°F11.2°C 49.4°F9.7°C 90% Calm Calm -- 30.03 in1016.9 mb 0.00 in0.0 mm 0.00 in0.0 mm 0.01 in0.3 mm
02:45 AM 52.2°F11.2°C 49.4°F9.7°C 90% Calm Calm -- 30.03 in1016.9 mb 0.00 in0.0 mm 0.00 in0.0 mm 0.01 in0.3 mm
02:43 AM 52.2°F11.2°C 49.4°F9.7°C 90% Calm Calm -- 30.03 in1016.9 mb 0.00 in0.0 mm 0.00 in0.0 mm 0.00 in0.0 mm
02:41 AM 52.3°F11.3°C 49.5°F9.7°C 90% Calm Calm -- 30.03 in1016.9 mb 0.00 in0.0 mm 0.00 in0.0 mm 0.00 in0.0 mm
02:39 AM 52.3°F11.3°C 49.5°F9.7°C 90% Calm Calm -- 30.03 in1016.9 mb 0.00 in0.0 mm 0.00 in0.0 mm 0.00 in0.0 mm
02:37 AM 52.3°F11.3°C 49.5°F9.7°C 90% Calm Calm -- 30.03 in1016.9 mb 0.00 in0.0 mm 0.00 in0.0 mm 0.00 in0.0 mm
02:35 AM 52.3°F11.3°C 49.5°F9.7°C 90% Calm Calm -- 30.03 in1016.9 mb 0.00 in0.0 mm 0.00 in0.0 mm 0.00 in0.0 mm
02:33 AM 52.3°F11.3°C 49.5°F9.7°C 90% Calm Calm -- 30.03 in1016.9 mb 0.00 in0.0 mm 0.00 in0.0 mm 0.00 in0.0 mm
02:31 AM 52.3°F11.3°C 49.5°F9.7°C 90% Calm Calm -- 30.03 in1016.9 mb 0.00 in0.0 mm 0.00 in0.0 mm 0.00 in0.0 mm
02:29 AM 52.4°F11.3°C 49.6°F9.8°C 90% Calm Calm 1.0 mph1.6 kmh 30.03 in1016.9 mb 0.00 in0.0 mm 0.00 in0.0 mm 0.00 in0.0 mm
02:27 AM 52.4°F11.3°C 49.6°F9.8°C 90% Calm Calm -- 30.03 in1016.9 mb 0.00 in0.0 mm 0.00 in0.0 mm 0.00 in0.0 mm
02:25 AM 52.4°F11.3°C 49.6°F9.8°C 90% Calm Calm -- 30.03 in1016.9 mb 0.00 in0.0 mm 0.00 in0.0 mm 0.00 in0.0 mm
02:23 AM 52.4°F11.3°C 49.6°F9.8°C 90% Calm Calm -- 30.03 in1016.9 mb 0.00 in0.0 mm 0.00 in0.0 mm 0.00 in0.0 mm
02:21 AM 52.4°F11.3°C 49.6°F9.8°C 90% Calm Calm -- 30.03 in1016.9 mb 0.00 in0.0 mm 0.00 in0.0 mm 0.00 in0.0 mm
02:19 AM 52.4°F11.3°C 49.6°F9.8°C 90% Calm Calm -- 30.03 in1016.9 mb 0.00 in0.0 mm 0.00 in0.0 mm 0.00 in0.0 mm
02:17 AM 52.4°F11.3°C 49.6°F9.8°C 90% Calm Calm 1.0 mph1.6 kmh 30.03 in1016.9 mb 0.00 in0.0 mm 0.00 in0.0 mm 0.00 in0.0 mm
02:15 AM 52.4°F11.3°C 49.6°F9.8°C 90% Calm Calm -- 30.03 in1016.9 mb 0.00 in0.0 mm 0.00 in0.0 mm 0.00 in0.0 mm
02:13 AM 52.4°F11.3°C 49.6°F9.8°C 90% Calm Calm -- 30.03 in1016.9 mb 0.00 in0.0 mm 0.00 in0.0 mm 0.00 in0.0 mm
02:11 AM 52.4°F11.3°C 49.6°F9.8°C 90% Calm Calm 2.0 mph3.2 kmh 30.03 in1016.9 mb 0.00 in0.0 mm 0.00 in0.0 mm 0.00 in0.0 mm
02:09 AM 52.4°F11.3°C 49.6°F9.8°C 90% Calm Calm -- 30.03 in1016.9 mb 0.00 in0.0 mm 0.00 in0.0 mm 0.00 in0.0 mm
02:07 AM 52.4°F11.3°C 49.6°F9.8°C 90% Calm Calm -- 30.03 in1016.9 mb 0.00 in0.0 mm 0.00 in0.0 mm 0.00 in0.0 mm
02:05 AM 52.4°F11.3°C 49.6°F9.8°C 90% Calm Calm -- 30.03 in1016.9 mb 0.00 in0.0 mm 0.00 in0.0 mm 0.00 in0.0 mm
02:03 AM 52.4°F11.3°C 49.6°F9.8°C 90% Calm Calm -- 30.03 in1016.9 mb 0.00 in0.0 mm 0.00 in0.0 mm 0.00 in0.0 mm
02:01 AM 52.4°F11.3°C 49.6°F9.8°C 90% Calm Calm -- 30.03 in1016.9 mb 0.00 in0.0 mm 0.00 in0.0 mm 0.00 in0.0 mm
01:59 AM 52.4°F11.3°C 49.6°F9.8°C 90% Calm Calm -- 30.03 in1016.9 mb 0.00 in0.0 mm 0.00 in0.0 mm 0.00 in0.0 mm
01:57 AM 52.3°F11.3°C 49.5°F9.7°C 90% Calm Calm -- 30.03 in1016.9 mb 0.00 in0.0 mm 0.00 in0.0 mm 0.00 in0.0 mm
01:55 AM 52.3°F11.3°C 49.5°F9.7°C 90% Calm Calm -- 30.03 in1016.9 mb 0.00 in0.0 mm 0.00 in0.0 mm 0.00 in0.0 mm
01:53 AM 52.3°F11.3°C 49.5°F9.7°C 90% Calm Calm -- 30.03 in1016.9 mb 0.00 in0.0 mm 0.00 in0.0 mm 0.00 in0.0 mm
01:51 AM 52.3°F11.3°C 49.5°F9.7°C 90% Calm Calm 2.0 mph3.2 kmh 30.04 in1017.3 mb 0.00 in0.0 mm 0.00 in0.0 mm 0.00 in0.0 mm
01:49 AM 52.2°F11.2°C 49.4°F9.7°C 90% 1.0 mph W1.6 kmh W 2.0 mph3.2 kmh 30.03 in1016.9 mb 0.00 in0.0 mm 0.00 in0.0 mm 0.00 in0.0 mm
01:47 AM 52.2°F11.2°C 49.4°F9.7°C 90% Calm Calm 1.0 mph1.6 kmh 30.04 in1017.3 mb 0.00 in0.0 mm 0.00 in0.0 mm 0.00 in0.0 mm
01:45 AM 52.1°F11.2°C 49.3°F9.6°C 90% 1.0 mph W1.6 kmh W 1.0 mph1.6 kmh 30.04 in1017.3 mb 0.00 in0.0 mm 0.00 in0.0 mm 0.00 in0.0 mm
01:43 AM 52.1°F11.2°C 49.3°F9.6°C 90% Calm Calm -- 30.03 in1016.9 mb 0.00 in0.0 mm 0.00 in0.0 mm 0.00 in0.0 mm
01:41 AM 52.1°F11.2°C 49.3°F9.6°C 90% Calm Calm -- 30.03 in1016.9 mb 0.00 in0.0 mm 0.00 in0.0 mm 0.00 in0.0 mm
01:39 AM 52.0°F11.1°C 49.2°F9.6°C 90% Calm Calm -- 30.03 in1016.9 mb 0.00 in0.0 mm 0.00 in0.0 mm 0.00 in0.0 mm
01:37 AM 52.0°F11.1°C 49.2°F9.6°C 90% Calm Calm -- 30.03 in1016.9 mb 0.00 in0.0 mm 0.00 in0.0 mm 0.00 in0.0 mm
01:35 AM 52.0°F11.1°C 49.2°F9.6°C 90% Calm Calm -- 30.03 in1016.9 mb 0.00 in0.0 mm 0.00 in0.0 mm 0.00 in0.0 mm
01:33 AM 52.0°F11.1°C 49.2°F9.6°C 90% Calm Calm -- 30.03 in1016.9 mb 0.00 in0.0 mm 0.00 in0.0 mm 0.00 in0.0 mm
01:31 AM 52.0°F11.1°C 49.2°F9.6°C 90% Calm Calm -- 30.03 in1016.9 mb 0.00 in0.0 mm 0.00 in0.0 mm 0.00 in0.0 mm
01:29 AM 52.0°F11.1°C 49.2°F9.6°C 90% Calm Calm -- 30.03 in1016.9 mb 0.00 in0.0 mm 0.00 in0.0 mm 0.00 in0.0 mm
01:27 AM 52.0°F11.1°C 49.2°F9.6°C 90% Calm Calm 2.0 mph3.2 kmh 30.03 in1016.9 mb 0.00 in0.0 mm 0.00 in0.0 mm 0.00 in0.0 mm
01:25 AM 52.0°F11.1°C 49.2°F9.6°C 90% 1.0 mph W1.6 kmh W 2.0 mph3.2 kmh 30.03 in1016.9 mb 0.00 in0.0 mm 0.00 in0.0 mm 0.00 in0.0 mm
01:23 AM 51.9°F11.1°C 49.1°F9.5°C 90% Calm Calm -- 30.04 in1017.3 mb 0.00 in0.0 mm 0.00 in0.0 mm 0.00 in0.0 mm
01:21 AM 51.9°F11.1°C 49.1°F9.5°C 90% Calm Calm -- 30.04 in1017.3 mb 0.00 in0.0 mm 0.00 in0.0 mm 0.00 in0.0 mm
01:19 AM 51.9°F11.1°C 49.1°F9.5°C 90% Calm Calm -- 30.04 in1017.3 mb 0.00 in0.0 mm 0.00 in0.0 mm 0.00 in0.0 mm
01:17 AM 51.8°F11.0°C 49.0°F9.4°C 90% Calm Calm -- 30.04 in1017.3 mb 0.00 in0.0 mm 0.00 in0.0 mm 0.00 in0.0 mm
01:15 AM 51.8°F11.0°C 49.0°F9.4°C 90% Calm Calm 1.0 mph1.6 kmh 30.03 in1016.9 mb 0.00 in0.0 mm 0.00 in0.0 mm 0.00 in0.0 mm
01:13 AM 51.7°F10.9°C 48.9°F9.4°C 90% Calm Calm -- 30.04 in1017.3 mb 0.00 in0.0 mm 0.00 in0.0 mm 0.00 in0.0 mm
01:11 AM 51.7°F10.9°C 48.9°F9.4°C 90% Calm Calm -- 30.04 in1017.3 mb 0.00 in0.0 mm 0.00 in0.0 mm 0.00 in0.0 mm
01:09 AM 51.7°F10.9°C 48.9°F9.4°C 90% Calm Calm -- 30.03 in1016.9 mb 0.00 in0.0 mm 0.00 in0.0 mm 0.00 in0.0 mm
01:07 AM 51.7°F10.9°C 48.9°F9.4°C 90% Calm Calm -- 30.03 in1016.9 mb 0.00 in0.0 mm 0.00 in0.0 mm 0.00 in0.0 mm
01:05 AM 51.7°F10.9°C 48.9°F9.4°C 90% Calm Calm -- 30.03 in1016.9 mb 0.00 in0.0 mm 0.00 in0.0 mm 0.00 in0.0 mm
01:03 AM 51.6°F10.9°C 48.5°F9.2°C 89% Calm Calm -- 30.04 in1017.3 mb 0.00 in0.0 mm 0.00 in0.0 mm 0.00 in0.0 mm
01:01 AM 51.6°F10.9°C 48.5°F9.2°C 89% Calm Calm -- 30.04 in1017.3 mb 0.00 in0.0 mm 0.00 in0.0 mm 0.00 in0.0 mm
12:59 AM 51.6°F10.9°C 48.5°F9.2°C 89% Calm Calm -- 30.04 in1017.3 mb 0.00 in0.0 mm 0.00 in0.0 mm 0.00 in0.0 mm
12:57 AM 51.6°F10.9°C 48.5°F9.2°C 89% Calm Calm -- 30.04 in1017.3 mb 0.00 in0.0 mm 0.00 in0.0 mm 0.00 in0.0 mm
12:55 AM 51.7°F10.9°C 48.6°F9.2°C 89% Calm Calm -- 30.04 in1017.3 mb 0.00 in0.0 mm 0.00 in0.0 mm 0.00 in0.0 mm
12:53 AM 51.7°F10.9°C 48.6°F9.2°C 89% Calm Calm -- 30.04 in1017.3 mb 0.00 in0.0 mm 0.00 in0.0 mm 0.00 in0.0 mm
12:51 AM 51.7°F10.9°C 48.6°F9.2°C 89% Calm Calm -- 30.04 in1017.3 mb 0.00 in0.0 mm 0.00 in0.0 mm 0.00 in0.0 mm
12:49 AM 51.8°F11.0°C 48.7°F9.3°C 89% Calm Calm -- 30.04 in1017.3 mb 0.00 in0.0 mm 0.00 in0.0 mm 0.00 in0.0 mm
12:47 AM 51.8°F11.0°C 48.7°F9.3°C 89% Calm Calm -- 30.04 in1017.3 mb 0.00 in0.0 mm 0.00 in0.0 mm 0.00 in0.0 mm
12:45 AM 51.8°F11.0°C 48.7°F9.3°C 89% Calm Calm -- 30.04 in1017.3 mb 0.00 in0.0 mm 0.00 in0.0 mm 0.00 in0.0 mm
12:43 AM 51.9°F11.1°C 48.8°F9.3°C 89% Calm Calm -- 30.04 in1017.3 mb 0.00 in0.0 mm 0.00 in0.0 mm 0.00 in0.0 mm
12:41 AM 51.9°F11.1°C 48.8°F9.3°C 89% Calm Calm -- 30.04 in1017.3 mb 0.00 in0.0 mm 0.00 in0.0 mm 0.00 in0.0 mm
12:39 AM 51.9°F11.1°C 48.8°F9.3°C 89% Calm Calm -- 30.04 in1017.3 mb 0.00 in0.0 mm 0.00 in0.0 mm 0.00 in0.0 mm
12:37 AM 51.9°F11.1°C 48.8°F9.3°C 89% Calm Calm -- 30.04 in1017.3 mb 0.00 in0.0 mm 0.00 in0.0 mm 0.00 in0.0 mm
12:35 AM 51.9°F11.1°C 48.8°F9.3°C 89% 1.0 mph W1.6 kmh W 2.0 mph3.2 kmh 30.04 in1017.3 mb 0.00 in0.0 mm 0.00 in0.0 mm 0.00 in0.0 mm
12:33 AM 52.0°F11.1°C 48.9°F9.4°C 89% Calm Calm -- 30.04 in1017.3 mb 0.00 in0.0 mm 0.00 in0.0 mm 0.00 in0.0 mm
12:31 AM 52.0°F11.1°C 48.9°F9.4°C 89% Calm Calm -- 30.05 in1017.6 mb 0.00 in0.0 mm 0.00 in0.0 mm 0.00 in0.0 mm
12:29 AM 52.1°F11.2°C 48.7°F9.3°C 88% Calm Calm -- 30.04 in1017.3 mb 0.00 in0.0 mm 0.00 in0.0 mm 0.00 in0.0 mm
12:27 AM 52.1°F11.2°C 48.7°F9.3°C 88% Calm Calm -- 30.04 in1017.3 mb 0.00 in0.0 mm 0.00 in0.0 mm 0.00 in0.0 mm
12:25 AM 52.1°F11.2°C 48.7°F9.3°C 88% Calm Calm -- 30.04 in1017.3 mb 0.00 in0.0 mm 0.00 in0.0 mm 0.00 in0.0 mm
12:23 AM 52.2°F11.2°C 48.8°F9.3°C 88% Calm Calm -- 30.04 in1017.3 mb 0.00 in0.0 mm 0.00 in0.0 mm 0.00 in0.0 mm
12:21 AM 52.2°F11.2°C 48.8°F9.3°C 88% Calm Calm -- 30.04 in1017.3 mb 0.00 in0.0 mm 0.00 in0.0 mm 0.00 in0.0 mm
12:19 AM 52.2°F11.2°C 48.8°F9.3°C 88% Calm Calm -- 30.04 in1017.3 mb 0.00 in0.0 mm 0.00 in0.0 mm 0.00 in0.0 mm
12:17 AM 52.3°F11.3°C 48.9°F9.4°C 88% Calm Calm -- 30.03 in1016.9 mb 0.00 in0.0 mm 0.00 in0.0 mm 0.00 in0.0 mm
12:15 AM 52.3°F11.3°C 48.9°F9.4°C 88% 2.0 mph W3.2 kmh W 2.0 mph3.2 kmh 30.03 in1016.9 mb 0.00 in0.0 mm 0.00 in0.0 mm 0.00 in0.0 mm
12:13 AM 52.4°F11.3°C 48.9°F9.4°C 88% Calm Calm -- 30.03 in1016.9 mb 0.00 in0.0 mm 0.00 in0.0 mm 0.00 in0.0 mm
12:11 AM 52.5°F11.4°C 49.0°F9.4°C 88% Calm Calm -- 30.03 in1016.9 mb 0.00 in0.0 mm 0.00 in0.0 mm 0.00 in0.0 mm
12:09 AM 52.5°F11.4°C 49.0°F9.4°C 88% Calm Calm -- 30.03 in1016.9 mb 0.00 in0.0 mm 0.00 in0.0 mm 0.00 in0.0 mm
12:07 AM 52.6°F11.4°C 49.1°F9.5°C 88% Calm Calm -- 30.03 in1016.9 mb 0.00 in0.0 mm 0.00 in0.0 mm 0.00 in0.0 mm
12:05 AM 52.7°F11.5°C 49.2°F9.6°C 88% Calm Calm -- 30.03 in1016.9 mb 0.00 in0.0 mm 0.00 in0.0 mm 0.00 in0.0 mm
12:03 AM 52.8°F11.6°C 49.3°F9.6°C 88% Calm Calm -- 30.03 in1016.9 mb 0.00 in0.0 mm 0.00 in0.0 mm 0.00 in0.0 mm
12:01 AM 52.8°F11.6°C 49.3°F9.6°C 88% Calm Calm -- 30.03 in1016.9 mb 0.00 in0.0 mm 0.00 in0.0 mm 0.00 in0.0 mm